createdAt,value
2023-04-09T00:00:29.556Z,4.19
2023-04-09T00:02:57.419Z,4.06
2023-04-09T00:05:26.732Z,4.16
2023-04-09T00:07:54.730Z,4.02
2023-04-09T00:10:22.624Z,4.14
2023-04-09T00:12:50.532Z,4.09
2023-04-09T00:15:29.967Z,4.02
2023-04-09T00:17:59.441Z,4.16
2023-04-09T00:20:28.929Z,3.96
2023-04-09T00:22:56.750Z,3.99
2023-04-09T00:25:24.743Z,3.99
2023-04-09T00:27:52.610Z,4.04
2023-04-09T00:30:20.480Z,3.75
2023-04-09T00:32:48.493Z,3.96
2023-04-09T00:35:17.410Z,3.98
2023-04-09T00:37:46.917Z,3.84
2023-04-09T00:40:15.438Z,3.76
2023-04-09T00:42:43.444Z,3.81
2023-04-09T00:45:11.955Z,3.80
2023-04-09T00:47:39.961Z,3.74
2023-04-09T00:50:08.699Z,3.47
2023-04-09T00:52:37.076Z,3.71
2023-04-09T00:55:07.354Z,3.74
2023-04-09T00:57:35.033Z,3.69
2023-04-09T01:00:04.067Z,3.44
2023-04-09T01:02:32.076Z,3.70
2023-04-09T01:05:00.705Z,3.64
2023-04-09T01:07:37.594Z,3.61
2023-04-09T01:10:18.144Z,3.61
2023-04-09T01:12:55.656Z,3.61
2023-04-09T01:15:27.899Z,3.48
2023-04-09T01:18:06.208Z,3.55
2023-04-09T01:20:40.529Z,3.69
2023-04-09T01:23:17.395Z,3.81
2023-04-09T01:26:02.392Z,3.90
2023-04-09T01:28:43.760Z,3.98
2023-04-09T01:31:14.491Z,3.40
2023-04-09T01:33:42.956Z,4.07
2023-04-09T01:36:11.465Z,4.16
2023-04-09T01:38:42.435Z,4.20
2023-04-09T01:41:13.052Z,4.32
2023-04-09T01:43:43.532Z,4.24
2023-04-09T01:46:12.345Z,4.43
2023-04-09T01:48:40.492Z,4.66
2023-04-09T01:51:08.507Z,4.51
2023-04-09T01:53:37.094Z,4.53
2023-04-09T01:56:05.657Z,4.66
2023-04-09T01:58:34.330Z,4.71
2023-04-09T02:01:08.230Z,4.43
2023-04-09T02:03:41.006Z,4.32
2023-04-09T02:06:15.537Z,4.47
2023-04-09T02:08:47.431Z,4.42
2023-04-09T02:11:16.420Z,4.80
2023-04-09T02:13:45.382Z,4.77
2023-04-09T02:16:16.694Z,4.70
2023-04-09T02:18:45.169Z,4.79
2023-04-09T02:21:13.782Z,4.66
2023-04-09T02:23:41.849Z,4.86
2023-04-09T02:26:09.714Z,4.84
2023-04-09T02:28:37.646Z,4.58
2023-04-09T02:31:06.165Z,4.74
2023-04-09T02:33:35.824Z,4.62
2023-04-09T02:36:03.685Z,4.41
2023-04-09T02:38:31.979Z,4.45
2023-04-09T02:40:59.931Z,4.43
2023-04-09T02:43:28.259Z,4.60
2023-04-09T02:45:56.177Z,4.44
2023-04-09T02:48:24.133Z,4.72
2023-04-09T02:50:53.407Z,4.58
2023-04-09T02:53:21.531Z,4.51
2023-04-09T02:55:49.495Z,4.55
2023-04-09T02:58:17.459Z,4.61
2023-04-09T03:00:45.474Z,4.82
2023-04-09T03:03:13.500Z,4.84
2023-04-09T03:05:41.595Z,4.87
2023-04-09T03:08:10.867Z,4.94
2023-04-09T03:10:38.784Z,5.01
2023-04-09T03:13:06.748Z,4.83
2023-04-09T03:15:34.660Z,4.86
2023-04-09T03:18:02.727Z,5.03
2023-04-09T03:20:32.292Z,5.18
2023-04-09T03:23:00.212Z,5.20
2023-04-09T03:25:38.323Z,5.14
2023-04-09T03:28:13.012Z,5.09
2023-04-09T03:30:47.728Z,5.14
2023-04-09T03:33:16.412Z,5.12
2023-04-09T03:35:56.240Z,5.32
2023-04-09T03:38:40.073Z,5.24
2023-04-09T03:41:16.004Z,5.31
2023-04-09T03:43:44.108Z,5.30
2023-04-09T03:46:14.120Z,4.95
2023-04-09T03:48:44.660Z,5.18
2023-04-09T03:51:13.708Z,5.28
2023-04-09T03:53:45.882Z,5.25
2023-04-09T03:56:15.516Z,5.41
2023-04-09T03:58:43.979Z,5.41
2023-04-09T04:01:14.143Z,5.40
2023-04-09T04:03:52.859Z,5.23
2023-04-09T04:06:24.249Z,5.08
2023-04-09T04:09:09.494Z,5.14
2023-04-09T04:11:46.092Z,5.28
2023-04-09T04:14:14.639Z,5.09
2023-04-09T04:16:45.809Z,5.03
2023-04-09T04:19:18.018Z,5.12
2023-04-09T04:21:49.320Z,4.98
2023-04-09T04:24:17.703Z,5.31
2023-04-09T04:26:47.046Z,5.31
2023-04-09T04:29:18.499Z,5.37
2023-04-09T04:31:57.705Z,5.19
2023-04-09T04:34:31.680Z,5.27
2023-04-09T04:37:23.124Z,5.28
2023-04-09T04:39:55.770Z,5.29
2023-04-09T04:42:25.688Z,5.15
2023-04-09T04:44:53.958Z,5.21
2023-04-09T04:47:44.023Z,5.37
2023-04-09T04:50:12.152Z,5.50
2023-04-09T04:52:52.693Z,5.43
2023-04-09T04:55:23.097Z,5.53
2023-04-09T04:57:53.556Z,5.57
2023-04-09T05:00:25.399Z,5.12
2023-04-09T05:02:53.720Z,5.57
2023-04-09T05:05:42.018Z,5.49
2023-04-09T05:08:10.589Z,5.34
2023-04-09T05:10:41.525Z,5.52
2023-04-09T05:13:10.940Z,5.26
2023-04-09T05:15:40.787Z,5.44
2023-04-09T05:18:10.561Z,5.56
2023-04-09T05:20:38.879Z,5.17
2023-04-09T05:23:12.543Z,5.23
2023-04-09T05:25:49.733Z,5.06
2023-04-09T05:28:27.158Z,5.05
2023-04-09T05:31:07.431Z,5.01
2023-04-09T05:33:38.293Z,4.81
2023-04-09T05:36:16.440Z,5.41
2023-04-09T05:38:44.544Z,5.35
2023-04-09T05:41:12.512Z,5.57
2023-04-09T05:43:51.023Z,5.58
2023-04-09T05:46:19.207Z,5.18
2023-04-09T05:48:47.942Z,5.45
2023-04-09T05:51:16.550Z,5.24
2023-04-09T05:53:44.693Z,5.21
2023-04-09T05:56:16.559Z,5.23
2023-04-09T05:58:55.591Z,5.17
2023-04-09T06:01:23.796Z,5.10
2023-04-09T06:03:52.863Z,5.18
2023-04-09T06:06:22.674Z,5.47
2023-04-09T06:08:50.531Z,5.41
2023-04-09T06:11:18.346Z,5.44
2023-04-09T06:13:46.199Z,5.00
2023-04-09T06:16:16.100Z,3.79
2023-04-09T06:18:45.997Z,5.19
2023-04-09T06:21:14.532Z,5.11
2023-04-09T06:23:42.424Z,5.31
2023-04-09T06:26:10.622Z,4.87
2023-04-09T06:28:38.540Z,5.28
2023-04-09T06:31:06.437Z,5.46
2023-04-09T06:33:35.663Z,5.38
2023-04-09T06:36:03.607Z,5.21
2023-04-09T06:38:31.429Z,5.33
2023-04-09T06:40:59.313Z,5.35
2023-04-09T06:43:27.174Z,5.32
2023-04-09T06:45:55.051Z,5.19
2023-04-09T06:48:22.932Z,5.01
2023-04-09T06:50:52.106Z,5.33
2023-04-09T06:53:20.128Z,5.30
2023-04-09T06:55:47.978Z,5.40
2023-04-09T06:58:16.479Z,5.09
2023-04-09T07:00:44.412Z,4.99
2023-04-09T07:03:12.618Z,4.98
2023-04-09T07:05:40.527Z,5.29
2023-04-09T07:08:09.749Z,5.56
2023-04-09T07:10:37.543Z,5.81
2023-04-09T07:13:05.439Z,5.96
2023-04-09T07:15:33.423Z,6.12
2023-04-09T07:18:01.365Z,6.04
2023-04-09T07:20:29.253Z,5.76
2023-04-09T07:22:57.275Z,5.91
2023-04-09T07:25:26.616Z,6.24
2023-04-09T07:27:54.714Z,6.43
2023-04-09T07:30:22.938Z,5.74
2023-04-09T07:32:50.966Z,6.18
2023-04-09T07:35:19.560Z,6.39
2023-04-09T07:37:47.396Z,6.27
2023-04-09T07:40:15.340Z,6.40
2023-04-09T07:42:44.570Z,6.62
2023-04-09T07:45:12.470Z,5.89
2023-04-09T07:47:41.354Z,5.80
2023-04-09T07:50:10.567Z,6.39
2023-04-09T07:52:38.667Z,5.65
2023-04-09T07:55:07.374Z,5.72
2023-04-09T07:57:35.324Z,5.94
2023-04-09T08:00:05.130Z,6.58
2023-04-09T08:02:40.996Z,6.57
2023-04-09T08:05:10.229Z,6.72
2023-04-09T08:07:38.107Z,6.78
2023-04-09T08:10:06.921Z,6.58
2023-04-09T08:12:34.954Z,6.92
2023-04-09T08:15:04.656Z,6.54
2023-04-09T08:17:32.521Z,6.72
2023-04-09T08:20:00.517Z,7.10
2023-04-09T08:22:28.376Z,7.41
2023-04-09T08:24:57.362Z,7.86
2023-04-09T08:27:25.499Z,8.17
2023-04-09T08:29:53.336Z,8.32
2023-04-09T08:32:22.774Z,8.59
2023-04-09T08:34:50.697Z,8.43
2023-04-09T08:37:18.530Z,8.39
2023-04-09T08:39:46.324Z,8.26
2023-04-09T08:42:16.099Z,8.22
2023-04-09T08:44:44.749Z,8.56
2023-04-09T08:47:13.039Z,8.52
2023-04-09T08:49:42.284Z,9.02
2023-04-09T08:52:10.126Z,9.11
2023-04-09T08:54:38.412Z,8.84
2023-04-09T08:57:06.812Z,8.44
2023-04-09T08:59:37.011Z,9.15
2023-04-09T09:02:08.755Z,8.61
2023-04-09T09:04:47.484Z,8.82
2023-04-09T09:07:16.166Z,8.89
2023-04-09T09:09:55.105Z,9.56
2023-04-09T09:12:36.525Z,10.01
2023-04-09T09:15:05.554Z,9.51
2023-04-09T09:17:33.493Z,9.42
2023-04-09T09:20:20.555Z,9.37
2023-04-09T09:22:54.936Z,9.59
2023-04-09T09:25:25.462Z,10.39
2023-04-09T09:27:54.848Z,10.73
2023-04-09T09:30:23.869Z,10.40
2023-04-09T09:32:53.984Z,10.50
2023-04-09T09:35:23.557Z,10.40
2023-04-09T09:38:03.862Z,10.46
2023-04-09T09:40:32.049Z,10.99
2023-04-09T09:42:59.980Z,10.51
2023-04-09T09:45:28.524Z,10.93
2023-04-09T09:47:56.929Z,10.90
2023-04-09T09:50:26.448Z,10.91
2023-04-09T09:52:59.835Z,11.22
2023-04-09T09:55:31.647Z,10.69
2023-04-09T09:58:04.544Z,11.13
2023-04-09T10:00:34.108Z,11.36
2023-04-09T10:03:13.144Z,11.69
2023-04-09T10:05:42.929Z,11.70
2023-04-09T10:08:11.546Z,11.83
2023-04-09T10:10:42.038Z,11.98
2023-04-09T10:13:15.494Z,12.09
2023-04-09T10:15:45.160Z,12.21
2023-04-09T10:18:13.099Z,12.22
2023-04-09T10:20:48.915Z,12.59
2023-04-09T10:23:25.638Z,12.79
2023-04-09T10:25:54.525Z,11.90
2023-04-09T10:28:24.403Z,12.60
2023-04-09T10:30:54.887Z,12.21
2023-04-09T10:33:27.834Z,12.63
2023-04-09T10:36:01.535Z,12.43
2023-04-09T10:38:37.182Z,12.20
2023-04-09T10:41:14.949Z,12.40
2023-04-09T10:43:43.137Z,12.47
2023-04-09T10:46:27.165Z,12.64
2023-04-09T10:49:13.959Z,12.51
2023-04-09T10:51:45.112Z,11.87
2023-04-09T10:54:43.674Z,11.91
2023-04-09T10:57:13.669Z,12.37
2023-04-09T10:59:43.132Z,12.03
2023-04-09T11:02:37.341Z,12.23
2023-04-09T11:05:16.306Z,12.19
2023-04-09T11:07:48.987Z,12.16
2023-04-09T11:10:16.894Z,12.35
2023-04-09T11:12:44.831Z,12.02
2023-04-09T11:15:17.740Z,12.02
2023-04-09T11:17:48.701Z,12.39
2023-04-09T11:20:18.374Z,12.16
2023-04-09T11:22:47.734Z,12.35
2023-04-09T11:25:20.791Z,12.39
2023-04-09T11:27:48.881Z,11.64
2023-04-09T11:30:16.769Z,11.71
2023-04-09T11:32:44.854Z,11.69
2023-04-09T11:35:14.351Z,12.08
2023-04-09T11:37:42.930Z,12.08
2023-04-09T11:40:17.957Z,11.87
2023-04-09T11:42:46.897Z,11.06
2023-04-09T11:45:16.249Z,11.71
2023-04-09T11:47:46.460Z,12.18
2023-04-09T11:50:15.393Z,12.12
2023-04-09T11:52:43.450Z,11.86
2023-04-09T11:55:12.169Z,12.27
2023-04-09T11:57:45.936Z,11.88
2023-04-09T12:00:15.546Z,12.29
2023-04-09T12:02:44.510Z,12.60
2023-04-09T12:05:14.188Z,12.89
2023-04-09T12:07:55.473Z,13.04
2023-04-09T12:10:28.495Z,12.58
2023-04-09T12:13:03.232Z,12.15
2023-04-09T12:15:33.821Z,12.42
2023-04-09T12:18:02.379Z,12.44
2023-04-09T12:20:34.867Z,12.54
2023-04-09T12:23:04.553Z,12.63
2023-04-09T12:25:32.818Z,12.72
2023-04-09T12:28:03.188Z,12.65
2023-04-09T12:30:31.617Z,12.35
2023-04-09T12:32:59.785Z,12.44
2023-04-09T12:35:28.298Z,12.31
2023-04-09T12:37:56.325Z,12.52
2023-04-09T12:40:24.341Z,12.62
2023-04-09T12:42:53.006Z,12.79
2023-04-09T12:45:23.253Z,12.81
2023-04-09T12:47:51.166Z,13.10
2023-04-09T12:50:19.111Z,13.40
2023-04-09T12:52:47.290Z,13.41
2023-04-09T12:55:16.146Z,13.07
2023-04-09T12:57:45.804Z,13.32
2023-04-09T13:00:14.764Z,13.48
2023-04-09T13:02:44.167Z,13.38
2023-04-09T13:05:12.292Z,13.20
2023-04-09T13:07:42.342Z,13.00
2023-04-09T13:10:11.412Z,13.15
2023-04-09T13:12:39.356Z,13.17
2023-04-09T13:15:08.330Z,13.38
2023-04-09T13:17:36.118Z,13.55
2023-04-09T13:20:05.995Z,12.77
2023-04-09T13:22:33.857Z,12.34
2023-04-09T13:25:01.701Z,13.04
2023-04-09T13:27:29.532Z,13.44
2023-04-09T13:29:57.404Z,13.67
2023-04-09T13:32:25.293Z,13.71
2023-04-09T13:34:54.512Z,13.95
2023-04-09T13:37:23.689Z,13.46
2023-04-09T13:39:51.650Z,13.13
2023-04-09T13:42:19.458Z,13.27
2023-04-09T13:44:47.348Z,13.22
2023-04-09T13:47:16.947Z,12.83
2023-04-09T13:49:45.090Z,12.96
2023-04-09T13:52:13.012Z,12.76
2023-04-09T13:54:42.201Z,13.10
2023-04-09T13:57:10.360Z,13.26
2023-04-09T13:59:39.061Z,13.30
2023-04-09T14:02:07.093Z,13.34
2023-04-09T14:04:35.157Z,13.69
2023-04-09T14:07:03.087Z,13.85
2023-04-09T14:09:31.140Z,13.99
2023-04-09T14:12:01.542Z,13.62
2023-04-09T14:14:29.360Z,13.79
2023-04-09T14:16:57.134Z,13.47
2023-04-09T14:19:24.995Z,13.36
2023-04-09T14:21:54.154Z,13.60
2023-04-09T14:24:23.146Z,13.75
2023-04-09T14:26:53.354Z,13.67
2023-04-09T14:29:22.915Z,13.75
2023-04-09T14:31:51.728Z,13.71
2023-04-09T14:34:19.586Z,13.40
2023-04-09T14:36:47.638Z,13.44
2023-04-09T14:39:15.630Z,13.61
2023-04-09T14:41:43.387Z,13.70
2023-04-09T14:44:14.580Z,13.69
2023-04-09T14:46:44.598Z,13.78
2023-04-09T14:49:12.512Z,13.76
2023-04-09T14:51:40.304Z,13.02
2023-04-09T14:54:08.032Z,12.82
2023-04-09T14:56:35.974Z,13.61
2023-04-09T14:59:04.338Z,13.57
2023-04-09T15:01:33.379Z,13.51
2023-04-09T15:04:02.751Z,13.20
2023-04-09T15:06:31.331Z,13.02
2023-04-09T15:08:59.158Z,13.04
2023-04-09T15:11:27.913Z,13.11
2023-04-09T15:13:56.230Z,12.53
2023-04-09T15:16:25.796Z,12.36
2023-04-09T15:18:55.849Z,12.95
2023-04-09T15:21:26.073Z,13.47
2023-04-09T15:23:54.325Z,13.60
2023-04-09T15:26:22.147Z,12.90
2023-04-09T15:28:51.202Z,12.97
2023-04-09T15:31:19.173Z,13.01
2023-04-09T15:33:48.237Z,12.65
2023-04-09T15:36:16.021Z,12.88
2023-04-09T15:38:45.189Z,13.06
2023-04-09T15:41:13.148Z,13.03
2023-04-09T15:43:41.002Z,13.66
2023-04-09T15:46:10.727Z,13.77
2023-04-09T15:48:38.993Z,14.03
2023-04-09T15:51:07.218Z,14.19
2023-04-09T15:53:35.188Z,14.17
2023-04-09T15:56:05.492Z,13.95
2023-04-09T15:58:33.150Z,14.11
2023-04-09T16:01:01.455Z,13.92
2023-04-09T16:03:29.288Z,13.90
2023-04-09T16:05:57.064Z,13.60
2023-04-09T16:08:26.601Z,13.60
2023-04-09T16:10:54.341Z,13.66
2023-04-09T16:13:23.549Z,13.68
2023-04-09T16:15:51.817Z,13.47
2023-04-09T16:18:19.789Z,13.52
2023-04-09T16:20:47.540Z,13.40
2023-04-09T16:23:15.398Z,13.45
2023-04-09T16:25:43.167Z,13.43
2023-04-09T16:28:11.091Z,13.47
2023-04-09T16:30:40.612Z,13.66
2023-04-09T16:33:08.752Z,13.54
2023-04-09T16:35:38.675Z,13.28
2023-04-09T16:38:08.367Z,13.19
2023-04-09T16:40:36.428Z,13.48
2023-04-09T16:43:04.455Z,13.47
2023-04-09T16:45:32.738Z,13.56
2023-04-09T16:48:02.146Z,13.44
2023-04-09T16:50:29.964Z,13.41
2023-04-09T16:52:57.730Z,13.43
2023-04-09T16:55:25.701Z,13.09
2023-04-09T16:57:55.931Z,13.46
2023-04-09T17:00:23.773Z,13.42
2023-04-09T17:02:51.967Z,12.85
2023-04-09T17:05:22.443Z,13.44
2023-04-09T17:07:50.231Z,13.39
2023-04-09T17:10:19.146Z,13.06
2023-04-09T17:12:48.337Z,13.34
2023-04-09T17:15:16.283Z,13.16
2023-04-09T17:17:45.710Z,13.24
2023-04-09T17:20:14.144Z,13.20
2023-04-09T17:22:43.490Z,12.87
2023-04-09T17:25:11.931Z,13.11
2023-04-09T17:27:39.699Z,13.08
2023-04-09T17:30:08.648Z,12.79
2023-04-09T17:32:36.758Z,12.70
2023-04-09T17:35:06.984Z,12.58
2023-04-09T17:37:35.417Z,12.73
2023-04-09T17:40:05.348Z,12.79
2023-04-09T17:42:33.224Z,12.71
2023-04-09T17:45:01.212Z,12.54
2023-04-09T17:47:28.947Z,12.34
2023-04-09T17:49:56.825Z,12.16
2023-04-09T17:52:24.566Z,12.02
2023-04-09T17:54:52.367Z,12.02
2023-04-09T17:57:21.524Z,11.85
2023-04-09T17:59:49.311Z,11.60
2023-04-09T18:02:17.461Z,11.65
2023-04-09T18:04:45.541Z,11.52
2023-04-09T18:07:13.612Z,11.63
2023-04-09T18:09:41.896Z,11.48
2023-04-09T18:12:09.697Z,11.44
2023-04-09T18:14:38.912Z,11.31
2023-04-09T18:17:07.004Z,11.15
2023-04-09T18:19:34.774Z,10.98
2023-04-09T18:22:02.568Z,10.58
2023-04-09T18:24:30.327Z,10.64
2023-04-09T18:26:58.154Z,10.49
2023-04-09T18:29:27.460Z,10.34
2023-04-09T18:31:57.453Z,10.28
2023-04-09T18:34:26.275Z,9.93
2023-04-09T18:36:55.433Z,9.98
2023-04-09T18:39:23.617Z,10.15
2023-04-09T18:41:51.539Z,10.05
2023-04-09T18:44:19.353Z,9.97
2023-04-09T18:46:47.237Z,9.87
2023-04-09T18:49:16.378Z,9.71
2023-04-09T18:51:44.233Z,9.23
2023-04-09T18:54:12.156Z,9.53
2023-04-09T18:56:39.948Z,9.38
2023-04-09T18:59:07.719Z,9.32
2023-04-09T19:01:35.593Z,9.27
2023-04-09T19:04:03.637Z,9.28
2023-04-09T19:06:33.189Z,9.12
2023-04-09T19:09:01.149Z,9.32
2023-04-09T19:11:29.285Z,8.95
2023-04-09T19:13:57.181Z,9.33
2023-04-09T19:16:25.081Z,9.24
2023-04-09T19:18:53.126Z,9.24
2023-04-09T19:21:21.117Z,9.18
2023-04-09T19:23:50.219Z,9.17
2023-04-09T19:26:18.214Z,8.97
2023-04-09T19:28:46.831Z,8.92
2023-04-09T19:31:16.033Z,8.11
2023-04-09T19:33:44.090Z,8.36
2023-04-09T19:36:12.951Z,8.55
2023-04-09T19:38:40.910Z,8.58
2023-04-09T19:41:10.437Z,8.48
2023-04-09T19:43:39.408Z,8.25
2023-04-09T19:46:08.570Z,8.22
2023-04-09T19:48:36.484Z,8.18
2023-04-09T19:51:04.721Z,7.89
2023-04-09T19:53:32.822Z,8.09
2023-04-09T19:56:00.804Z,7.98
2023-04-09T19:58:31.957Z,7.85
2023-04-09T20:00:59.894Z,7.95
2023-04-09T20:03:27.773Z,8.10
2023-04-09T20:05:55.735Z,7.93
2023-04-09T20:08:23.603Z,8.07
2023-04-09T20:10:52.720Z,7.96
2023-04-09T20:13:20.559Z,7.76
2023-04-09T20:15:50.160Z,8.04
2023-04-09T20:18:17.949Z,7.66
2023-04-09T20:20:45.859Z,7.89
2023-04-09T20:23:13.829Z,7.78
2023-04-09T20:25:41.626Z,7.86
2023-04-09T20:28:09.926Z,7.55
2023-04-09T20:30:37.818Z,7.41
2023-04-09T20:33:07.326Z,7.30
2023-04-09T20:35:36.119Z,6.88
2023-04-09T20:38:04.119Z,7.16
2023-04-09T20:40:32.398Z,7.15
2023-04-09T20:43:00.478Z,7.04
2023-04-09T20:45:28.338Z,7.08
2023-04-09T20:47:56.236Z,7.06
2023-04-09T20:50:25.868Z,6.95
2023-04-09T20:52:53.720Z,7.03
2023-04-09T20:55:24.340Z,7.03
2023-04-09T20:57:52.773Z,7.01
2023-04-09T21:00:20.840Z,6.95
2023-04-09T21:02:48.916Z,7.04
2023-04-09T21:05:23.564Z,7.04
2023-04-09T21:07:53.573Z,6.58
2023-04-09T21:10:21.450Z,6.63
2023-04-09T21:12:49.417Z,6.62
2023-04-09T21:15:17.430Z,6.62
2023-04-09T21:17:45.546Z,6.53
2023-04-09T21:20:15.034Z,6.14
2023-04-09T21:22:42.919Z,6.50
2023-04-09T21:25:14.580Z,6.23
2023-04-09T21:27:43.189Z,6.49
2023-04-09T21:30:11.514Z,6.50
2023-04-09T21:32:39.376Z,6.56
2023-04-09T21:35:07.774Z,6.30
2023-04-09T21:37:37.464Z,6.19
2023-04-09T21:40:06.193Z,6.49
2023-04-09T21:42:35.501Z,6.45
2023-04-09T21:45:03.727Z,6.30
2023-04-09T21:47:31.959Z,6.33
2023-04-09T21:50:00.112Z,6.27
2023-04-09T21:52:28.099Z,6.30
2023-04-09T21:54:55.948Z,6.49
2023-04-09T21:57:23.818Z,6.21
2023-04-09T21:59:53.080Z,6.31
2023-04-09T22:02:20.961Z,6.36
2023-04-09T22:04:48.917Z,6.31
2023-04-09T22:07:17.034Z,6.31
2023-04-09T22:09:44.831Z,6.22
2023-04-09T22:12:12.681Z,6.13
2023-04-09T22:14:41.759Z,6.11
2023-04-09T22:17:11.119Z,6.15
2023-04-09T22:19:38.998Z,6.07
2023-04-09T22:22:06.764Z,5.91
2023-04-09T22:24:34.597Z,5.64
2023-04-09T22:27:02.676Z,5.60
2023-04-09T22:29:30.600Z,5.68
2023-04-09T22:31:58.453Z,4.83
2023-04-09T22:34:27.743Z,5.78
2023-04-09T22:36:55.510Z,5.74
2023-04-09T22:39:23.367Z,5.26
2023-04-09T22:41:51.157Z,5.57
2023-04-09T22:44:19.066Z,5.37
2023-04-09T22:46:47.034Z,5.45
2023-04-09T22:49:15.006Z,5.31
2023-04-09T22:51:44.263Z,4.87
2023-04-09T22:54:12.150Z,5.29
2023-04-09T22:56:40.388Z,5.29
2023-04-09T22:59:08.273Z,5.16
2023-04-09T23:01:36.739Z,5.27
2023-04-09T23:04:04.813Z,5.20
2023-04-09T23:06:32.752Z,4.65
2023-04-09T23:09:01.946Z,4.78
2023-04-09T23:11:30.519Z,5.31
2023-04-09T23:13:58.390Z,4.85
2023-04-09T23:16:26.301Z,5.14
2023-04-09T23:18:54.538Z,5.17
2023-04-09T23:21:22.644Z,5.04
2023-04-09T23:23:50.511Z,5.10
2023-04-09T23:26:19.712Z,5.13
2023-04-09T23:28:47.525Z,5.13
2023-04-09T23:31:16.063Z,5.03
2023-04-09T23:33:43.996Z,4.94
2023-04-09T23:36:11.929Z,5.17
2023-04-09T23:38:40.446Z,4.89
2023-04-09T23:41:08.594Z,4.79
2023-04-09T23:43:37.735Z,4.91
2023-04-09T23:46:06.183Z,4.86
2023-04-09T23:48:34.025Z,4.44
2023-04-09T23:51:01.820Z,4.79
2023-04-09T23:53:29.706Z,4.63
2023-04-09T23:55:57.575Z,4.51
2023-04-09T23:58:25.535Z,4.35
